메인 페이지
METAR-TAF:

METAR-TAF

공항 :

OR 탐보 국제공항

요하네스버그, 남아프리카공화국

위도: 26-08S, 경도: 028-14E, 고도: 1694m

현재 날씨관측

예보는 26분 전, 19:00시(UTC)에 발표되었습니다.
북북동20kt
온도 16°C
습도 68%
기압 1026 hPa
시정 10km 이상
1500m 미만 상공 구름 및 적란운 없음

METAR: FAOR 201900Z 02020KT CAVOK 16/10 Q1026 NOSIG

시각: 21:26 (19:26 UTC)

예보

예보는 3 시간 26분 전, 16:00시(UTC)에 발표되었습니다.
예보 대상 시간: 20일 18시부터 21일 24시까지 (UTC)
15kt
시정 10km 이상
1500m 미만 상공 구름 및 적란운 없음
확률 30% :
일시적
21일 05시부터 21일 09시까지 (UTC)
고도 1000ft 상공 구름 많음
전환 중
21일 13시부터 21일 15시까지 (UTC)
서북서6kt
전환 중
21일 20시부터 21일 22시까지 (UTC)
동남동10kt

TAF: FAOR 201600Z 2018/2124 01015KT CAVOK PROB30 TEMPO 2105/2109 BKN010 BECMG 2113/2115 30006KT BECMG 2120/2122 12010KT TX24/2113Z TN10/2104Z

4,000개 이상의 공항 관측 자료 및 예보 (METAR 및 TAF 보고).

지도상에서 검색 가능한 기상관측소가 노란 점과 빨간 점으로 표시되어 있습니다.

기상관측소 명을 보려면 표시 위로 마우스를 이동하세요.

날씨 관측과 예보를 보려면 클릭하세요.

지도 변경 : 확대하려면 엑스 표시가 있는 녹색 버튼, 축소하려면 빼기 표시가 있는 녹색 버튼, 다음 페이지의 지도를 보려면 녹색 화살표를 클릭하세요.


METAR-TAF: